createdAt,value
2019-05-21T00:00:24.761Z,84.90
2019-05-21T00:02:53.609Z,83.90
2019-05-21T00:05:22.509Z,83.00
2019-05-21T00:07:51.395Z,83.10
2019-05-21T00:10:20.173Z,82.70
2019-05-21T00:12:48.999Z,82.50
2019-05-21T00:15:17.951Z,82.60
2019-05-21T00:17:46.798Z,83.40
2019-05-21T00:20:15.979Z,82.80
2019-05-21T00:22:44.748Z,82.50
2019-05-21T00:25:17.128Z,81.80
2019-05-21T00:27:44.694Z,82.20
2019-05-21T00:30:49.646Z,81.40
2019-05-21T00:33:54.977Z,81.30
2019-05-21T00:37:01.823Z,81.40
2019-05-21T00:40:07.079Z,81.80
2019-05-21T00:42:38.802Z,82.50
2019-05-21T00:45:10.106Z,82.70
2019-05-21T00:47:38.872Z,82.40
2019-05-21T00:50:08.311Z,82.50
2019-05-21T00:52:37.101Z,81.90
2019-05-21T00:55:07.212Z,81.80
2019-05-21T00:57:36.021Z,81.80
2019-05-21T01:00:07.116Z,81.90
2019-05-21T01:02:36.081Z,81.70
2019-05-21T01:05:06.270Z,81.50
2019-05-21T01:07:35.098Z,82.00
2019-05-21T01:10:05.282Z,81.70
2019-05-21T01:12:34.068Z,82.30
2019-05-21T01:15:03.090Z,82.10
2019-05-21T01:17:31.875Z,82.00
2019-05-21T01:20:00.950Z,81.10
2019-05-21T01:22:29.763Z,80.40
2019-05-21T01:25:00.240Z,80.30
2019-05-21T01:27:29.093Z,80.60
2019-05-21T01:29:57.895Z,80.50
2019-05-21T01:32:26.718Z,80.10
2019-05-21T01:34:55.502Z,80.60
2019-05-21T01:37:24.315Z,80.70
2019-05-21T01:39:53.096Z,80.90
2019-05-21T01:42:21.890Z,80.80
2019-05-21T01:44:50.769Z,80.80
2019-05-21T01:47:19.671Z,81.10
2019-05-21T01:49:48.449Z,81.90
2019-05-21T01:52:17.229Z,80.90
2019-05-21T01:54:46.037Z,81.40
2019-05-21T01:57:14.930Z,81.80
2019-05-21T01:59:43.765Z,82.30
2019-05-21T02:02:12.575Z,81.30
2019-05-21T02:04:41.428Z,80.50
2019-05-21T02:07:10.188Z,80.30
2019-05-21T02:09:57.007Z,80.80
2019-05-21T02:12:26.217Z,80.90
2019-05-21T02:14:55.111Z,81.30
2019-05-21T02:17:24.831Z,81.30
2019-05-21T02:19:53.646Z,81.30
2019-05-21T02:22:22.425Z,81.40
2019-05-21T02:24:51.251Z,80.70
2019-05-21T02:27:20.040Z,80.70
2019-05-21T02:29:49.951Z,80.60
2019-05-21T02:32:18.807Z,80.60
2019-05-21T02:34:47.694Z,80.50
2019-05-21T02:37:16.584Z,80.60
2019-05-21T02:39:45.354Z,81.00
2019-05-21T02:42:14.180Z,81.10
2019-05-21T02:44:42.949Z,81.10
2019-05-21T02:47:11.851Z,81.60
2019-05-21T02:49:40.704Z,81.40
2019-05-21T02:52:09.494Z,80.90
2019-05-21T02:54:41.542Z,80.90
2019-05-21T02:57:09.670Z,80.60
2019-05-21T02:59:39.344Z,80.50
2019-05-21T03:02:12.709Z,80.60
2019-05-21T03:04:40.751Z,80.60
2019-05-21T03:07:18.675Z,81.10
2019-05-21T03:09:49.299Z,81.80
2019-05-21T03:12:18.550Z,81.50
2019-05-21T03:14:47.537Z,81.30
2019-05-21T03:17:16.362Z,81.40
2019-05-21T03:19:45.140Z,81.10
2019-05-21T03:22:15.730Z,81.40
2019-05-21T03:24:44.458Z,80.90
2019-05-21T03:27:13.310Z,80.70
2019-05-21T03:29:42.108Z,80.80
2019-05-21T03:32:10.975Z,80.60
2019-05-21T03:34:39.726Z,81.10
2019-05-21T03:37:08.566Z,80.70
2019-05-21T03:39:37.398Z,80.90
2019-05-21T03:42:06.250Z,80.90
2019-05-21T03:44:35.592Z,80.20
2019-05-21T03:47:04.420Z,80.00
2019-05-21T03:49:33.310Z,79.90
2019-05-21T03:52:02.091Z,79.60
2019-05-21T03:54:32.076Z,79.30
2019-05-21T03:57:01.927Z,79.10
2019-05-21T03:59:30.832Z,78.70
2019-05-21T04:01:59.729Z,78.40
2019-05-21T04:04:29.693Z,79.10
2019-05-21T04:06:58.543Z,79.60
2019-05-21T04:09:27.315Z,79.70
2019-05-21T04:11:56.199Z,79.40
2019-05-21T04:14:32.373Z,79.20
2019-05-21T04:17:19.480Z,79.00
2019-05-21T04:19:49.226Z,79.00
2019-05-21T04:22:18.056Z,78.50
2019-05-21T04:24:46.835Z,78.20
2019-05-21T04:27:15.751Z,78.50
2019-05-21T04:29:44.555Z,78.60
2019-05-21T04:32:13.346Z,78.50
2019-05-21T04:34:42.184Z,78.40
2019-05-21T04:37:11.979Z,78.60
2019-05-21T04:39:41.140Z,79.20
2019-05-21T04:42:10.033Z,78.90
2019-05-21T04:44:38.834Z,78.70
2019-05-21T04:47:07.708Z,78.90
2019-05-21T04:49:36.558Z,79.10
2019-05-21T04:52:05.387Z,79.00
2019-05-21T04:54:34.163Z,79.40
2019-05-21T04:57:02.972Z,79.20
2019-05-21T04:59:31.781Z,79.40
2019-05-21T05:02:00.686Z,79.40
2019-05-21T05:04:29.534Z,79.40
2019-05-21T05:06:58.415Z,79.00
2019-05-21T05:09:27.257Z,79.00
2019-05-21T05:11:56.043Z,79.30
2019-05-21T05:14:24.852Z,78.60
2019-05-21T05:16:55.480Z,78.40
2019-05-21T05:19:24.334Z,78.50
2019-05-21T05:21:53.140Z,78.60
2019-05-21T05:24:21.961Z,78.80
2019-05-21T05:26:50.836Z,78.20
2019-05-21T05:29:19.592Z,77.60
2019-05-21T05:31:48.483Z,77.70
2019-05-21T05:34:17.321Z,77.40
2019-05-21T05:36:46.290Z,77.60
2019-05-21T05:39:15.069Z,77.70
2019-05-21T05:41:43.843Z,76.80
2019-05-21T05:44:12.722Z,76.70
2019-05-21T05:46:41.568Z,76.80
2019-05-21T05:49:12.023Z,77.50
2019-05-21T05:51:40.885Z,76.70
2019-05-21T05:54:09.710Z,76.80
2019-05-21T05:56:38.490Z,76.60
2019-05-21T05:59:07.412Z,76.60
2019-05-21T06:01:36.283Z,76.90
2019-05-21T06:04:05.167Z,77.10
2019-05-21T06:06:34.052Z,77.30
2019-05-21T06:09:03.460Z,77.20
2019-05-21T06:11:32.363Z,76.60
2019-05-21T06:14:01.156Z,76.60
2019-05-21T06:16:29.948Z,77.60
2019-05-21T06:18:58.786Z,76.30
2019-05-21T06:21:27.626Z,76.40
2019-05-21T06:23:56.548Z,75.50
2019-05-21T06:26:25.429Z,75.50
2019-05-21T06:28:54.331Z,75.00
2019-05-21T06:31:23.112Z,74.60
2019-05-21T06:33:52.038Z,75.10
2019-05-21T06:36:26.969Z,75.10
2019-05-21T06:38:55.823Z,75.80
2019-05-21T06:41:24.643Z,74.40
2019-05-21T06:43:53.428Z,73.90
2019-05-21T06:46:22.322Z,73.40
2019-05-21T06:48:51.180Z,73.60
2019-05-21T06:51:20.017Z,74.20
2019-05-21T06:53:48.780Z,73.10
2019-05-21T06:56:17.640Z,72.70
2019-05-21T06:58:46.463Z,72.60
2019-05-21T07:01:15.310Z,71.80
2019-05-21T07:03:44.139Z,72.10
2019-05-21T07:06:12.978Z,72.20
2019-05-21T07:08:41.790Z,71.80
2019-05-21T07:11:10.655Z,71.30
2019-05-21T07:13:39.666Z,71.00
2019-05-21T07:16:08.472Z,69.70
2019-05-21T07:18:41.048Z,70.50
2019-05-21T07:21:07.823Z,70.40
2019-05-21T07:23:36.660Z,70.10
2019-05-21T07:26:05.449Z,69.40
2019-05-21T07:28:34.304Z,69.60
2019-05-21T07:31:03.130Z,68.10
2019-05-21T07:33:32.005Z,68.60
2019-05-21T07:36:00.874Z,69.50
2019-05-21T07:38:29.804Z,70.50
2019-05-21T07:40:58.853Z,69.00
2019-05-21T07:43:27.697Z,68.90
2019-05-21T07:45:56.571Z,68.50
2019-05-21T07:48:25.370Z,68.00
2019-05-21T07:50:54.212Z,66.90
2019-05-21T07:53:22.986Z,66.10
2019-05-21T07:55:51.798Z,64.80
2019-05-21T07:58:20.653Z,64.80
2019-05-21T08:00:49.483Z,62.90
2019-05-21T08:03:18.354Z,61.20
2019-05-21T08:05:47.098Z,62.10
2019-05-21T08:08:15.932Z,61.50
2019-05-21T08:10:44.723Z,59.90
2019-05-21T08:13:13.678Z,59.10
2019-05-21T08:15:42.454Z,57.50
2019-05-21T08:18:11.296Z,57.40
2019-05-21T08:20:40.141Z,57.10
2019-05-21T08:23:08.927Z,57.00
2019-05-21T08:25:37.737Z,55.10
2019-05-21T08:28:06.586Z,53.70
2019-05-21T08:30:35.435Z,51.00
2019-05-21T08:33:04.239Z,50.90
2019-05-21T08:35:33.022Z,51.30
2019-05-21T08:38:01.824Z,52.10
2019-05-21T08:40:30.642Z,52.30
2019-05-21T08:42:59.525Z,53.50
2019-05-21T08:45:28.290Z,53.50
2019-05-21T08:47:57.135Z,52.90
2019-05-21T08:50:25.894Z,53.40
2019-05-21T08:52:54.885Z,53.00
2019-05-21T08:55:23.682Z,51.50
2019-05-21T08:58:06.242Z,50.20
2019-05-21T09:00:24.105Z,52.00
2019-05-21T09:02:52.891Z,53.00
2019-05-21T09:05:21.778Z,53.00
2019-05-21T09:07:53.574Z,51.10
2019-05-21T09:10:21.174Z,50.10
2019-05-21T09:12:50.028Z,51.60
2019-05-21T09:15:19.350Z,51.00
2019-05-21T09:17:48.227Z,47.20
2019-05-21T09:20:17.668Z,46.70
2019-05-21T09:22:46.451Z,44.20
2019-05-21T09:25:15.380Z,42.50
2019-05-21T09:27:44.121Z,43.90
2019-05-21T09:30:13.738Z,42.70
2019-05-21T09:32:42.528Z,42.70
2019-05-21T09:35:11.531Z,42.70
2019-05-21T09:37:40.369Z,41.20
2019-05-21T09:40:10.323Z,38.80
2019-05-21T09:42:39.227Z,38.70
2019-05-21T09:45:09.517Z,37.30
2019-05-21T09:47:38.280Z,39.90
2019-05-21T09:50:10.799Z,39.10
2019-05-21T09:52:39.572Z,39.80
2019-05-21T09:55:08.991Z,38.80
2019-05-21T09:57:48.532Z,35.20
2019-05-21T10:00:22.492Z,34.40
2019-05-21T10:02:51.543Z,36.00
2019-05-21T10:05:20.438Z,35.10
2019-05-21T10:07:49.278Z,35.50
2019-05-21T10:10:18.132Z,34.00
2019-05-21T10:12:46.921Z,32.10
2019-05-21T10:15:15.759Z,33.30
2019-05-21T10:17:44.539Z,33.60
2019-05-21T10:20:13.723Z,33.00
2019-05-21T10:22:42.600Z,32.90
2019-05-21T10:25:11.383Z,33.80
2019-05-21T10:27:40.258Z,34.60
2019-05-21T10:30:09.938Z,35.80
2019-05-21T10:32:38.759Z,36.60
2019-05-21T10:35:07.641Z,36.60
2019-05-21T10:37:36.472Z,34.70
2019-05-21T10:40:07.181Z,34.50
2019-05-21T10:42:35.960Z,33.70
2019-05-21T10:45:06.436Z,35.00
2019-05-21T10:47:35.214Z,36.20
2019-05-21T10:50:07.783Z,33.80
2019-05-21T10:52:36.582Z,31.20
2019-05-21T10:55:09.886Z,29.10
2019-05-21T10:57:38.658Z,27.30
2019-05-21T11:00:10.284Z,26.80
2019-05-21T11:02:41.060Z,26.60
2019-05-21T11:05:17.767Z,25.80
2019-05-21T11:07:46.580Z,26.40
2019-05-21T11:10:15.909Z,24.80
2019-05-21T11:12:44.950Z,24.50
2019-05-21T11:15:14.705Z,24.10
2019-05-21T11:17:53.736Z,23.10
2019-05-21T11:20:14.273Z,22.10
2019-05-21T11:22:43.098Z,20.90
2019-05-21T11:25:11.939Z,22.00
2019-05-21T11:27:40.825Z,21.40
2019-05-21T11:30:10.597Z,20.90
2019-05-21T11:32:39.443Z,20.90
2019-05-21T11:35:08.918Z,21.30
2019-05-21T11:37:37.804Z,21.70
2019-05-21T11:40:08.605Z,21.60
2019-05-21T11:42:37.657Z,22.80
2019-05-21T11:45:07.982Z,22.50
2019-05-21T11:47:36.854Z,21.90
2019-05-21T11:50:07.834Z,22.40
2019-05-21T11:52:36.606Z,22.00
2019-05-21T11:55:08.880Z,21.90
2019-05-21T11:57:37.745Z,21.90
2019-05-21T12:00:08.218Z,21.30
2019-05-21T12:02:37.103Z,22.00
2019-05-21T12:05:09.175Z,21.70
2019-05-21T12:07:38.006Z,21.30
2019-05-21T12:10:08.104Z,21.80
2019-05-21T12:12:36.979Z,21.40
2019-05-21T12:15:09.251Z,21.60
2019-05-21T12:17:38.105Z,22.40
2019-05-21T12:20:08.375Z,22.50
2019-05-21T12:22:37.255Z,23.00
2019-05-21T12:25:06.842Z,24.80
2019-05-21T12:27:35.684Z,24.20
2019-05-21T12:30:09.658Z,24.60
2019-05-21T12:32:38.479Z,24.50
2019-05-21T12:35:07.251Z,24.50
2019-05-21T12:37:37.787Z,25.60
2019-05-21T12:40:10.845Z,25.50
2019-05-21T12:42:39.683Z,25.60
2019-05-21T12:45:08.819Z,25.40
2019-05-21T12:47:37.656Z,24.50
2019-05-21T12:50:07.957Z,25.40
2019-05-21T12:52:36.847Z,25.20
2019-05-21T12:55:08.927Z,24.90
2019-05-21T12:57:39.185Z,25.30
2019-05-21T13:00:16.600Z,26.40
2019-05-21T13:02:49.989Z,25.80
2019-05-21T13:05:24.988Z,26.10
2019-05-21T13:07:53.729Z,27.40
2019-05-21T13:10:29.761Z,26.40
2019-05-21T13:12:58.551Z,25.40
2019-05-21T13:15:30.645Z,24.50
2019-05-21T13:17:59.537Z,24.50
2019-05-21T13:20:28.282Z,24.40
2019-05-21T13:22:57.092Z,25.20
2019-05-21T13:25:26.530Z,25.50
2019-05-21T13:27:57.562Z,25.70
2019-05-21T13:30:26.238Z,26.50
2019-05-21T13:32:56.938Z,26.30
2019-05-21T13:35:25.817Z,25.10
2019-05-21T13:37:57.852Z,23.30
2019-05-21T13:40:27.046Z,22.90
2019-05-21T13:42:55.905Z,22.20
2019-05-21T13:45:24.812Z,21.90
2019-05-21T13:47:56.351Z,22.20
2019-05-21T13:50:25.268Z,22.10
2019-05-21T13:52:54.269Z,22.00
2019-05-21T13:55:24.578Z,21.30
2019-05-21T13:57:53.421Z,22.10
2019-05-21T14:00:34.253Z,21.90
2019-05-21T14:03:03.347Z,23.60
2019-05-21T14:05:32.387Z,23.00
2019-05-21T14:08:01.256Z,24.80
2019-05-21T14:10:30.699Z,25.20
2019-05-21T14:13:05.868Z,25.70
2019-05-21T14:15:37.406Z,27.00
2019-05-21T14:18:06.232Z,27.90
2019-05-21T14:20:35.081Z,29.30
2019-05-21T14:23:04.090Z,31.20
2019-05-21T14:25:38.583Z,33.40
2019-05-21T14:28:10.840Z,34.90
2019-05-21T14:30:39.892Z,35.90
2019-05-21T14:33:08.885Z,35.90
2019-05-21T14:35:40.159Z,36.70
2019-05-21T14:38:09.083Z,37.20
2019-05-21T14:40:47.672Z,37.70
2019-05-21T14:43:18.026Z,38.20
2019-05-21T14:45:46.954Z,39.20
2019-05-21T14:48:15.925Z,39.30
2019-05-21T14:50:47.785Z,40.10
2019-05-21T14:53:16.801Z,38.90
2019-05-21T14:55:45.766Z,39.80
2019-05-21T14:58:14.558Z,40.50
2019-05-21T15:00:43.660Z,40.60
2019-05-21T15:03:25.007Z,41.30
2019-05-21T15:05:43.003Z,40.00
2019-05-21T15:08:11.812Z,41.20
2019-05-21T15:10:48.541Z,41.10
2019-05-21T15:13:11.069Z,41.00
2019-05-21T15:15:41.125Z,41.60
2019-05-21T15:18:09.937Z,41.70
2019-05-21T15:20:46.450Z,41.30
2019-05-21T15:23:17.908Z,41.00
2019-05-21T15:25:46.802Z,41.20
2019-05-21T15:28:16.792Z,41.20
2019-05-21T15:30:45.671Z,41.20
2019-05-21T15:33:14.549Z,41.30
2019-05-21T15:35:48.891Z,41.60
2019-05-21T15:38:19.625Z,41.80
2019-05-21T15:41:06.721Z,42.00
2019-05-21T15:43:18.649Z,42.00
2019-05-21T15:45:47.424Z,40.70
2019-05-21T15:48:16.311Z,41.10
2019-05-21T15:50:45.177Z,41.70
2019-05-21T15:53:14.385Z,41.90
2019-05-21T15:55:43.209Z,42.50
2019-05-21T15:58:13.448Z,42.30
2019-05-21T16:00:42.413Z,42.50
2019-05-21T16:03:12.308Z,42.40
2019-05-21T16:05:41.036Z,42.30
2019-05-21T16:08:10.050Z,42.90
2019-05-21T16:10:41.255Z,43.00
2019-05-21T16:13:10.143Z,43.10
2019-05-21T16:15:39.092Z,43.30
2019-05-21T16:18:07.967Z,42.90
2019-05-21T16:20:36.948Z,43.00
2019-05-21T16:23:05.792Z,43.20
2019-05-21T16:25:34.710Z,43.40
2019-05-21T16:28:03.574Z,43.40
2019-05-21T16:30:32.447Z,43.30
2019-05-21T16:33:01.325Z,43.40
2019-05-21T16:35:30.505Z,43.80
2019-05-21T16:37:59.540Z,43.90
2019-05-21T16:40:28.596Z,43.20
2019-05-21T16:42:57.491Z,43.20
2019-05-21T16:45:26.689Z,42.90
2019-05-21T16:47:56.130Z,43.10
2019-05-21T16:50:24.908Z,43.50
2019-05-21T16:52:53.708Z,43.80
2019-05-21T16:55:22.495Z,44.00
2019-05-21T16:57:51.311Z,43.40
2019-05-21T17:00:22.559Z,43.90
2019-05-21T17:02:51.641Z,44.50
2019-05-21T17:05:20.782Z,44.90
2019-05-21T17:07:49.701Z,44.00
2019-05-21T17:10:20.006Z,43.80
2019-05-21T17:12:48.794Z,43.80
2019-05-21T17:15:17.738Z,43.80
2019-05-21T17:17:46.589Z,45.30
2019-05-21T17:20:16.209Z,44.80
2019-05-21T17:22:44.991Z,45.40
2019-05-21T17:25:14.031Z,45.80
2019-05-21T17:27:42.805Z,45.80
2019-05-21T17:30:12.119Z,45.80
2019-05-21T17:32:41.210Z,46.00
2019-05-21T17:35:17.811Z,46.20
2019-05-21T17:37:46.650Z,46.40
2019-05-21T17:40:15.627Z,45.90
2019-05-21T17:42:44.471Z,46.40
2019-05-21T17:45:14.089Z,47.30
2019-05-21T17:47:42.864Z,46.80
2019-05-21T17:50:12.353Z,47.20
2019-05-21T17:52:41.293Z,47.40
2019-05-21T17:55:10.356Z,47.50
2019-05-21T17:57:40.730Z,47.90
2019-05-21T18:00:11.410Z,48.00
2019-05-21T18:02:41.091Z,47.90
2019-05-21T18:05:12.252Z,47.80
2019-05-21T18:07:42.111Z,48.00
2019-05-21T18:10:13.861Z,47.70
2019-05-21T18:12:42.852Z,47.90
2019-05-21T18:15:13.027Z,48.40
2019-05-21T18:17:42.887Z,49.10
2019-05-21T18:20:13.321Z,49.40
2019-05-21T18:22:43.763Z,50.10
2019-05-21T18:25:13.217Z,50.60
2019-05-21T18:27:42.072Z,51.40
2019-05-21T18:30:14.912Z,51.50
2019-05-21T18:32:43.728Z,51.50
2019-05-21T18:35:13.083Z,51.00
2019-05-21T18:37:42.316Z,50.50
2019-05-21T18:40:11.552Z,50.50
2019-05-21T18:42:40.381Z,50.70
2019-05-21T18:45:10.595Z,50.80
2019-05-21T18:47:39.351Z,51.60
2019-05-21T18:50:09.683Z,51.60
2019-05-21T18:52:38.524Z,52.40
2019-05-21T18:55:07.820Z,52.40
2019-05-21T18:57:36.607Z,52.90
2019-05-21T19:00:07.858Z,53.80
2019-05-21T19:02:37.051Z,54.50
2019-05-21T19:05:07.226Z,54.60
2019-05-21T19:07:36.634Z,55.40
2019-05-21T19:10:09.954Z,55.80
2019-05-21T19:12:38.855Z,56.20
2019-05-21T19:15:10.489Z,57.80
2019-05-21T19:17:39.522Z,59.00
2019-05-21T19:20:09.423Z,59.10
2019-05-21T19:22:38.329Z,59.50
2019-05-21T19:25:09.938Z,59.70
2019-05-21T19:27:38.815Z,60.60
2019-05-21T19:30:08.886Z,60.00
2019-05-21T19:32:37.704Z,61.00
2019-05-21T19:35:09.409Z,60.50
2019-05-21T19:37:38.233Z,61.50
2019-05-21T19:40:07.595Z,62.00
2019-05-21T19:42:36.429Z,61.60
2019-05-21T19:45:10.586Z,62.90
2019-05-21T19:47:39.550Z,63.50
2019-05-21T19:50:08.993Z,63.20
2019-05-21T19:52:37.789Z,63.80
2019-05-21T19:55:07.979Z,63.50
2019-05-21T19:57:38.501Z,63.80
2019-05-21T20:00:08.589Z,64.00
2019-05-21T20:02:37.474Z,64.60
2019-05-21T20:05:08.067Z,64.80
2019-05-21T20:07:36.989Z,64.30
2019-05-21T20:10:07.432Z,65.60
2019-05-21T20:12:36.593Z,66.30
2019-05-21T20:15:09.372Z,65.80
2019-05-21T20:17:39.808Z,65.80
2019-05-21T20:20:09.600Z,66.50
2019-05-21T20:22:40.006Z,66.00
2019-05-21T20:25:09.753Z,66.60
2019-05-21T20:27:39.163Z,67.10
2019-05-21T20:30:13.162Z,67.80
2019-05-21T20:32:42.834Z,67.60
2019-05-21T20:35:14.210Z,68.50
2019-05-21T20:37:44.806Z,67.80
2019-05-21T20:40:15.086Z,68.30
2019-05-21T20:42:44.832Z,69.10
2019-05-21T20:45:16.069Z,68.40
2019-05-21T20:47:47.860Z,68.70
2019-05-21T20:50:18.316Z,69.60
2019-05-21T20:52:47.195Z,69.30
2019-05-21T20:55:18.184Z,69.70
2019-05-21T20:57:47.455Z,69.70
2019-05-21T21:00:23.686Z,69.00
2019-05-21T21:02:53.067Z,69.90
2019-05-21T21:05:22.448Z,69.20
2019-05-21T21:07:52.192Z,69.40
2019-05-21T21:10:22.341Z,70.10
2019-05-21T21:12:52.852Z,70.10
2019-05-21T21:15:22.008Z,70.10
2019-05-21T21:17:50.753Z,70.80
2019-05-21T21:20:19.663Z,70.50
2019-05-21T21:22:48.448Z,70.60
2019-05-21T21:25:22.752Z,69.90
2019-05-21T21:27:51.594Z,70.70
2019-05-21T21:30:20.597Z,70.90
2019-05-21T21:32:49.787Z,71.90
2019-05-21T21:35:18.904Z,71.50
2019-05-21T21:37:47.681Z,71.20
2019-05-21T21:40:17.631Z,70.70
2019-05-21T21:42:46.461Z,72.10
2019-05-21T21:45:15.278Z,72.10
2019-05-21T21:47:44.809Z,71.10
2019-05-21T21:50:14.574Z,71.50
2019-05-21T21:52:44.464Z,72.30
2019-05-21T21:55:14.056Z,72.00
2019-05-21T21:57:42.872Z,72.30
2019-05-21T22:00:58.755Z,72.30
2019-05-21T22:03:33.756Z,71.80
2019-05-21T22:06:04.670Z,71.50
2019-05-21T22:08:33.772Z,72.60
2019-05-21T22:11:03.332Z,72.20
2019-05-21T22:13:32.526Z,72.50
2019-05-21T22:16:01.322Z,73.10
2019-05-21T22:18:32.077Z,72.00
2019-05-21T22:21:01.546Z,72.50
2019-05-21T22:23:30.540Z,73.30
2019-05-21T22:25:59.322Z,74.00
2019-05-21T22:28:28.566Z,73.40
2019-05-21T22:30:57.426Z,73.90
2019-05-21T22:33:26.314Z,73.80
2019-05-21T22:35:55.101Z,72.90
2019-05-21T22:38:24.394Z,73.60
2019-05-21T22:40:53.249Z,73.10
2019-05-21T22:43:22.138Z,74.00
2019-05-21T22:45:50.926Z,73.80
2019-05-21T22:48:19.766Z,74.70
2019-05-21T22:50:48.549Z,74.40
2019-05-21T22:53:17.328Z,74.60
2019-05-21T22:55:46.206Z,75.90
2019-05-21T22:58:15.050Z,75.70
2019-05-21T23:00:44.616Z,76.60
2019-05-21T23:03:13.750Z,75.00
2019-05-21T23:05:43.899Z,76.00
2019-05-21T23:08:13.171Z,74.70
2019-05-21T23:10:42.115Z,75.50
2019-05-21T23:13:11.110Z,74.70
2019-05-21T23:15:40.157Z,75.10
2019-05-21T23:18:09.960Z,75.20
2019-05-21T23:20:39.059Z,74.40
2019-05-21T23:23:07.941Z,75.10
2019-05-21T23:25:38.408Z,75.00
2019-05-21T23:28:07.981Z,75.10
2019-05-21T23:30:37.277Z,75.20
2019-05-21T23:33:07.054Z,75.30
2019-05-21T23:35:35.934Z,75.50
2019-05-21T23:38:06.099Z,76.50
2019-05-21T23:40:35.348Z,76.30
2019-05-21T23:43:04.204Z,75.20
2019-05-21T23:45:33.608Z,76.30
2019-05-21T23:48:02.640Z,76.30
2019-05-21T23:50:32.005Z,75.80
2019-05-21T23:53:02.470Z,75.70
2019-05-21T23:55:31.423Z,75.40
2019-05-21T23:58:00.959Z,75.30
